sensor_id;sensor_type;location;lat;lon;timestamp;P1;durP1;ratioP1;P2;durP2;ratioP2
13267;SDS011;6702;47.068;15.458;2022-08-03T00:00:52;5.73;;;4.20;;
13267;SDS011;6702;47.068;15.458;2022-08-03T00:03:55;4.83;;;4.43;;
13267;SDS011;6702;47.068;15.458;2022-08-03T00:06:58;5.37;;;4.97;;
13267;SDS011;6702;47.068;15.458;2022-08-03T00:10:03;4.73;;;4.20;;
13267;SDS011;6702;47.068;15.458;2022-08-03T00:13:07;4.67;;;4.37;;
13267;SDS011;6702;47.068;15.458;2022-08-03T00:16:13;5.60;;;5.00;;
13267;SDS011;6702;47.068;15.458;2022-08-03T00:19:16;5.17;;;4.80;;
13267;SDS011;6702;47.068;15.458;2022-08-03T00:22:19;4.27;;;3.97;;
13267;SDS011;6702;47.068;15.458;2022-08-03T00:25:25;4.40;;;4.10;;
13267;SDS011;6702;47.068;15.458;2022-08-03T00:28:28;4.20;;;3.40;;
13267;SDS011;6702;47.068;15.458;2022-08-03T00:31:32;4.80;;;4.40;;
13267;SDS011;6702;47.068;15.458;2022-08-03T00:34:53;5.03;;;4.70;;
13267;SDS011;6702;47.068;15.458;2022-08-03T00:37:59;7.13;;;4.40;;
13267;SDS011;6702;47.068;15.458;2022-08-03T00:41:03;4.80;;;4.40;;
13267;SDS011;6702;47.068;15.458;2022-08-03T00:44:06;5.50;;;5.00;;
13267;SDS011;6702;47.068;15.458;2022-08-03T00:47:09;5.07;;;4.70;;
13267;SDS011;6702;47.068;15.458;2022-08-03T00:50:13;5.57;;;5.17;;
13267;SDS011;6702;47.068;15.458;2022-08-03T00:53:17;4.47;;;4.17;;
13267;SDS011;6702;47.068;15.458;2022-08-03T00:56:22;5.53;;;5.03;;
13267;SDS011;6702;47.068;15.458;2022-08-03T00:59:25;6.07;;;5.00;;
13267;SDS011;6702;47.068;15.458;2022-08-03T01:02:29;5.10;;;4.53;;
13267;SDS011;6702;47.068;15.458;2022-08-03T01:05:33;6.40;;;5.80;;
13267;SDS011;6702;47.068;15.458;2022-08-03T01:08:45;5.80;;;5.40;;
13267;SDS011;6702;47.068;15.458;2022-08-03T01:12:05;4.67;;;4.33;;
13267;SDS011;6702;47.068;15.458;2022-08-03T01:15:16;5.27;;;4.90;;
13267;SDS011;6702;47.068;15.458;2022-08-03T01:18:27;5.17;;;4.77;;
13267;SDS011;6702;47.068;15.458;2022-08-03T01:21:39;4.63;;;4.33;;
13267;SDS011;6702;47.068;15.458;2022-08-03T01:24:56;5.13;;;4.73;;
13267;SDS011;6702;47.068;15.458;2022-08-03T01:28:13;5.23;;;4.90;;
13267;SDS011;6702;47.068;15.458;2022-08-03T01:31:30;5.97;;;4.27;;
13267;SDS011;6702;47.068;15.458;2022-08-03T01:34:59;5.07;;;4.77;;
13267;SDS011;6702;47.068;15.458;2022-08-03T01:38:10;4.37;;;4.07;;
13267;SDS011;6702;47.068;15.458;2022-08-03T01:41:16;5.53;;;5.13;;
13267;SDS011;6702;47.068;15.458;2022-08-03T01:44:22;4.77;;;4.47;;
13267;SDS011;6702;47.068;15.458;2022-08-03T01:47:32;5.53;;;5.03;;
13267;SDS011;6702;47.068;15.458;2022-08-03T01:50:35;5.17;;;4.77;;
13267;SDS011;6702;47.068;15.458;2022-08-03T01:53:39;4.57;;;4.27;;
13267;SDS011;6702;47.068;15.458;2022-08-03T01:56:44;5.53;;;5.03;;
13267;SDS011;6702;47.068;15.458;2022-08-03T01:59:50;4.50;;;4.20;;
13267;SDS011;6702;47.068;15.458;2022-08-03T02:02:57;6.00;;;4.60;;
13267;SDS011;6702;47.068;15.458;2022-08-03T02:06:00;4.90;;;4.50;;
13267;SDS011;6702;47.068;15.458;2022-08-03T02:09:24;5.20;;;4.70;;
13267;SDS011;6702;47.068;15.458;2022-08-03T02:12:29;5.07;;;4.70;;
13267;SDS011;6702;47.068;15.458;2022-08-03T02:15:34;4.90;;;4.50;;
13267;SDS011;6702;47.068;15.458;2022-08-03T02:18:39;5.10;;;4.60;;
13267;SDS011;6702;47.068;15.458;2022-08-03T02:21:44;5.30;;;4.80;;
13267;SDS011;6702;47.068;15.458;2022-08-03T02:25:01;5.23;;;4.80;;
13267;SDS011;6702;47.068;15.458;2022-08-03T02:28:05;6.37;;;5.13;;
13267;SDS011;6702;47.068;15.458;2022-08-03T02:31:12;5.40;;;5.00;;
13267;SDS011;6702;47.068;15.458;2022-08-03T02:34:20;4.80;;;4.50;;
13267;SDS011;6702;47.068;15.458;2022-08-03T02:37:27;5.47;;;4.97;;
13267;SDS011;6702;47.068;15.458;2022-08-03T02:40:33;5.30;;;4.53;;
13267;SDS011;6702;47.068;15.458;2022-08-03T02:43:38;4.73;;;4.33;;
13267;SDS011;6702;47.068;15.458;2022-08-03T02:47:06;5.27;;;4.93;;
13267;SDS011;6702;47.068;15.458;2022-08-03T02:50:14;7.13;;;5.13;;
13267;SDS011;6702;47.068;15.458;2022-08-03T02:53:19;5.20;;;4.80;;
13267;SDS011;6702;47.068;15.458;2022-08-03T02:56:23;4.50;;;4.10;;
13267;SDS011;6702;47.068;15.458;2022-08-03T02:59:28;4.37;;;4.07;;
13267;SDS011;6702;47.068;15.458;2022-08-03T03:02:32;5.60;;;5.10;;
13267;SDS011;6702;47.068;15.458;2022-08-03T03:05:39;6.20;;;5.10;;
13267;SDS011;6702;47.068;15.458;2022-08-03T03:08:57;5.10;;;4.70;;
13267;SDS011;6702;47.068;15.458;2022-08-03T03:12:01;6.03;;;4.40;;
13267;SDS011;6702;47.068;15.458;2022-08-03T03:15:06;4.73;;;4.33;;
13267;SDS011;6702;47.068;15.458;2022-08-03T03:18:09;5.47;;;4.67;;
13267;SDS011;6702;47.068;15.458;2022-08-03T03:21:16;5.53;;;5.10;;
13267;SDS011;6702;47.068;15.458;2022-08-03T03:24:21;5.90;;;4.77;;
13267;SDS011;6702;47.068;15.458;2022-08-03T03:27:25;5.47;;;5.07;;
13267;SDS011;6702;47.068;15.458;2022-08-03T03:30:30;5.50;;;5.00;;
13267;SDS011;6702;47.068;15.458;2022-08-03T03:33:33;4.60;;;4.30;;
13267;SDS011;6702;47.068;15.458;2022-08-03T03:36:38;5.60;;;5.20;;
13267;SDS011;6702;47.068;15.458;2022-08-03T03:39:41;5.60;;;5.07;;
13267;SDS011;6702;47.068;15.458;2022-08-03T03:42:44;5.10;;;4.70;;
13267;SDS011;6702;47.068;15.458;2022-08-03T03:45:48;6.07;;;5.47;;
13267;SDS011;6702;47.068;15.458;2022-08-03T03:48:51;5.23;;;4.80;;
13267;SDS011;6702;47.068;15.458;2022-08-03T03:51:56;5.87;;;3.77;;
13267;SDS011;6702;47.068;15.458;2022-08-03T03:54:59;4.67;;;4.27;;
13267;SDS011;6702;47.068;15.458;2022-08-03T03:58:03;4.57;;;4.17;;
13267;SDS011;6702;47.068;15.458;2022-08-03T04:01:06;5.30;;;4.80;;
13267;SDS011;6702;47.068;15.458;2022-08-03T04:04:10;5.60;;;4.70;;
13267;SDS011;6702;47.068;15.458;2022-08-03T04:07:34;5.30;;;4.90;;
13267;SDS011;6702;47.068;15.458;2022-08-03T04:11:02;5.43;;;5.03;;
13267;SDS011;6702;47.068;15.458;2022-08-03T04:14:12;5.20;;;4.80;;
13267;SDS011;6702;47.068;15.458;2022-08-03T04:17:18;5.37;;;4.87;;
13267;SDS011;6702;47.068;15.458;2022-08-03T04:20:22;4.63;;;4.33;;
13267;SDS011;6702;47.068;15.458;2022-08-03T04:23:29;6.03;;;5.47;;
13267;SDS011;6702;47.068;15.458;2022-08-03T04:26:36;5.63;;;5.20;;
13267;SDS011;6702;47.068;15.458;2022-08-03T04:29:42;5.47;;;4.97;;
13267;SDS011;6702;47.068;15.458;2022-08-03T04:32:49;5.47;;;4.97;;
13267;SDS011;6702;47.068;15.458;2022-08-03T04:35:54;4.90;;;4.50;;
13267;SDS011;6702;47.068;15.458;2022-08-03T04:39:06;4.97;;;4.57;;
13267;SDS011;6702;47.068;15.458;2022-08-03T04:42:12;5.23;;;4.73;;
13267;SDS011;6702;47.068;15.458;2022-08-03T04:45:16;4.47;;;4.17;;
13267;SDS011;6702;47.068;15.458;2022-08-03T04:48:20;5.60;;;5.20;;
13267;SDS011;6702;47.068;15.458;2022-08-03T04:51:24;6.40;;;5.90;;
13267;SDS011;6702;47.068;15.458;2022-08-03T04:54:29;5.17;;;4.77;;
13267;SDS011;6702;47.068;15.458;2022-08-03T04:57:32;5.40;;;4.90;;
13267;SDS011;6702;47.068;15.458;2022-08-03T05:00:35;5.57;;;5.17;;
13267;SDS011;6702;47.068;15.458;2022-08-03T05:03:39;5.50;;;5.00;;
13267;SDS011;6702;47.068;15.458;2022-08-03T05:06:42;6.50;;;5.90;;
13267;SDS011;6702;47.068;15.458;2022-08-03T05:09:50;5.93;;;5.50;;
13267;SDS011;6702;47.068;15.458;2022-08-03T05:13:03;6.30;;;5.33;;
13267;SDS011;6702;47.068;15.458;2022-08-03T05:16:06;5.83;;;5.33;;
13267;SDS011;6702;47.068;15.458;2022-08-03T05:19:09;6.03;;;5.53;;
13267;SDS011;6702;47.068;15.458;2022-08-03T05:22:12;6.40;;;5.80;;
13267;SDS011;6702;47.068;15.458;2022-08-03T05:25:17;6.83;;;6.20;;
13267;SDS011;6702;47.068;15.458;2022-08-03T05:28:27;5.83;;;5.30;;
13267;SDS011;6702;47.068;15.458;2022-08-03T05:31:30;7.20;;;6.53;;
13267;SDS011;6702;47.068;15.458;2022-08-03T05:34:33;6.50;;;5.90;;
13267;SDS011;6702;47.068;15.458;2022-08-03T05:37:36;7.00;;;6.30;;
13267;SDS011;6702;47.068;15.458;2022-08-03T05:40:56;9.90;;;8.97;;
13267;SDS011;6702;47.068;15.458;2022-08-03T05:44:20;13.10;;;9.87;;
13267;SDS011;6702;47.068;15.458;2022-08-03T05:47:25;13.57;;;10.77;;
13267;SDS011;6702;47.068;15.458;2022-08-03T05:50:28;6.53;;;5.93;;
13267;SDS011;6702;47.068;15.458;2022-08-03T05:53:32;15.37;;;11.83;;
13267;SDS011;6702;47.068;15.458;2022-08-03T05:56:36;18.67;;;12.57;;
13267;SDS011;6702;47.068;15.458;2022-08-03T05:59:41;10.73;;;8.87;;
13267;SDS011;6702;47.068;15.458;2022-08-03T06:02:59;8.50;;;7.07;;
13267;SDS011;6702;47.068;15.458;2022-08-03T06:06:02;27.33;;;16.90;;
13267;SDS011;6702;47.068;15.458;2022-08-03T06:09:05;25.43;;;21.63;;
13267;SDS011;6702;47.068;15.458;2022-08-03T06:12:11;17.70;;;15.97;;
13267;SDS011;6702;47.068;15.458;2022-08-03T06:15:14;8.70;;;7.80;;
13267;SDS011;6702;47.068;15.458;2022-08-03T06:18:18;25.73;;;23.03;;
13267;SDS011;6702;47.068;15.458;2022-08-03T06:21:22;10.40;;;9.43;;
13267;SDS011;6702;47.068;15.458;2022-08-03T06:24:27;26.17;;;23.40;;
13267;SDS011;6702;47.068;15.458;2022-08-03T06:27:32;9.97;;;6.73;;
13267;SDS011;6702;47.068;15.458;2022-08-03T06:30:37;7.30;;;5.77;;
13267;SDS011;6702;47.068;15.458;2022-08-03T06:33:41;33.80;;;30.30;;
13267;SDS011;6702;47.068;15.458;2022-08-03T06:37:04;9.00;;;7.00;;
13267;SDS011;6702;47.068;15.458;2022-08-03T06:40:08;5.88;;;5.20;;
13267;SDS011;6702;47.068;15.458;2022-08-03T06:43:15;6.30;;;5.70;;
13267;SDS011;6702;47.068;15.458;2022-08-03T06:46:18;5.07;;;4.63;;
13267;SDS011;6702;47.068;15.458;2022-08-03T06:49:23;5.68;;;5.18;;
13267;SDS011;6702;47.068;15.458;2022-08-03T06:52:26;7.13;;;6.32;;
13267;SDS011;6702;47.068;15.458;2022-08-03T06:55:38;7.32;;;6.53;;
13267;SDS011;6702;47.068;15.458;2022-08-03T06:58:44;11.27;;;10.18;;
13267;SDS011;6702;47.068;15.458;2022-08-03T07:01:47;6.25;;;5.75;;
13267;SDS011;6702;47.068;15.458;2022-08-03T07:04:50;4.32;;;4.03;;
13267;SDS011;6702;47.068;15.458;2022-08-03T07:07:54;4.22;;;3.92;;
13267;SDS011;6702;47.068;15.458;2022-08-03T07:10:59;3.05;;;2.85;;
13267;SDS011;6702;47.068;15.458;2022-08-03T07:14:04;2.95;;;2.72;;
13267;SDS011;6702;47.068;15.458;2022-08-03T07:17:07;3.45;;;3.15;;
13267;SDS011;6702;47.068;15.458;2022-08-03T07:20:12;3.30;;;3.00;;
13267;SDS011;6702;47.068;15.458;2022-08-03T07:23:15;4.05;;;3.20;;
13267;SDS011;6702;47.068;15.458;2022-08-03T07:26:19;3.55;;;3.28;;
13267;SDS011;6702;47.068;15.458;2022-08-03T07:29:24;3.05;;;2.75;;
13267;SDS011;6702;47.068;15.458;2022-08-03T07:32:27;3.20;;;3.00;;
13267;SDS011;6702;47.068;15.458;2022-08-03T07:35:32;5.93;;;2.97;;
13267;SDS011;6702;47.068;15.458;2022-08-03T07:38:35;2.33;;;2.22;;
13267;SDS011;6702;47.068;15.458;2022-08-03T07:41:38;2.80;;;2.60;;
13267;SDS011;6702;47.068;15.458;2022-08-03T07:44:43;2.28;;;2.08;;
13267;SDS011;6702;47.068;15.458;2022-08-03T07:47:46;2.35;;;2.22;;
13267;SDS011;6702;47.068;15.458;2022-08-03T07:50:54;2.50;;;2.30;;
13267;SDS011;6702;47.068;15.458;2022-08-03T07:53:57;3.53;;;2.50;;
13267;SDS011;6702;47.068;15.458;2022-08-03T07:57:01;2.20;;;2.10;;
13267;SDS011;6702;47.068;15.458;2022-08-03T08:00:06;2.15;;;2.03;;
13267;SDS011;6702;47.068;15.458;2022-08-03T08:03:16;2.80;;;2.60;;
13267;SDS011;6702;47.068;15.458;2022-08-03T08:06:19;2.53;;;2.33;;
13267;SDS011;6702;47.068;15.458;2022-08-03T08:09:22;2.40;;;2.17;;
13267;SDS011;6702;47.068;15.458;2022-08-03T08:12:29;2.60;;;2.40;;
13267;SDS011;6702;47.068;15.458;2022-08-03T08:15:33;2.55;;;2.35;;
13267;SDS011;6702;47.068;15.458;2022-08-03T08:18:43;2.55;;;2.35;;
13267;SDS011;6702;47.068;15.458;2022-08-03T08:21:46;2.35;;;2.17;;
13267;SDS011;6702;47.068;15.458;2022-08-03T08:25:02;3.20;;;2.70;;
13267;SDS011;6702;47.068;15.458;2022-08-03T08:28:05;2.13;;;2.03;;
13267;SDS011;6702;47.068;15.458;2022-08-03T08:31:30;2.42;;;2.22;;
13267;SDS011;6702;47.068;15.458;2022-08-03T08:34:33;3.53;;;2.35;;
13267;SDS011;6702;47.068;15.458;2022-08-03T08:37:36;2.45;;;2.35;;
13267;SDS011;6702;47.068;15.458;2022-08-03T08:40:40;3.10;;;2.90;;
13267;SDS011;6702;47.068;15.458;2022-08-03T08:43:43;3.38;;;2.90;;
13267;SDS011;6702;47.068;15.458;2022-08-03T08:46:48;2.80;;;2.47;;
13267;SDS011;6702;47.068;15.458;2022-08-03T08:49:56;2.95;;;2.75;;
13267;SDS011;6702;47.068;15.458;2022-08-03T08:53:10;2.78;;;2.60;;
13267;SDS011;6702;47.068;15.458;2022-08-03T08:56:22;4.47;;;3.20;;
13267;SDS011;6702;47.068;15.458;2022-08-03T08:59:27;2.92;;;2.63;;
13267;SDS011;6702;47.068;15.458;2022-08-03T09:02:49;4.80;;;2.83;;
13267;SDS011;6702;47.068;15.458;2022-08-03T09:05:52;4.85;;;3.42;;
13267;SDS011;6702;47.068;15.458;2022-08-03T09:08:57;3.58;;;3.00;;
13267;SDS011;6702;47.068;15.458;2022-08-03T09:12:00;3.58;;;3.38;;
13267;SDS011;6702;47.068;15.458;2022-08-03T09:15:24;3.42;;;3.05;;
13267;SDS011;6702;47.068;15.458;2022-08-03T09:18:30;3.33;;;3.13;;
13267;SDS011;6702;47.068;15.458;2022-08-03T09:21:34;4.85;;;3.33;;
13267;SDS011;6702;47.068;15.458;2022-08-03T09:24:37;2.80;;;2.60;;
13267;SDS011;6702;47.068;15.458;2022-08-03T09:28:15;3.17;;;2.97;;
13267;SDS011;6702;47.068;15.458;2022-08-03T09:31:40;3.50;;;3.20;;
13267;SDS011;6702;47.068;15.458;2022-08-03T09:34:47;3.88;;;3.45;;
13267;SDS011;6702;47.068;15.458;2022-08-03T09:37:53;3.33;;;2.97;;
13267;SDS011;6702;47.068;15.458;2022-08-03T09:41:16;4.38;;;2.95;;
13267;SDS011;6702;47.068;15.458;2022-08-03T09:44:20;2.90;;;2.70;;
13267;SDS011;6702;47.068;15.458;2022-08-03T09:47:36;2.83;;;2.63;;
13267;SDS011;6702;47.068;15.458;2022-08-03T09:50:50;2.90;;;2.70;;
13267;SDS011;6702;47.068;15.458;2022-08-03T09:54:12;3.28;;;2.95;;
13267;SDS011;6702;47.068;15.458;2022-08-03T09:57:27;2.97;;;2.78;;
13267;SDS011;6702;47.068;15.458;2022-08-03T10:00:32;2.80;;;2.60;;
13267;SDS011;6702;47.068;15.458;2022-08-03T10:03:56;2.95;;;2.75;;
13267;SDS011;6702;47.068;15.458;2022-08-03T10:07:07;2.95;;;2.40;;
13267;SDS011;6702;47.068;15.458;2022-08-03T10:10:13;3.03;;;2.42;;
13267;SDS011;6702;47.068;15.458;2022-08-03T10:13:32;4.13;;;2.42;;
13267;SDS011;6702;47.068;15.458;2022-08-03T10:16:36;3.22;;;3.00;;
13267;SDS011;6702;47.068;15.458;2022-08-03T10:19:41;3.22;;;2.67;;
13267;SDS011;6702;47.068;15.458;2022-08-03T10:22:46;2.53;;;2.33;;
13267;SDS011;6702;47.068;15.458;2022-08-03T10:25:52;3.03;;;2.78;;
13267;SDS011;6702;47.068;15.458;2022-08-03T10:29:02;3.00;;;2.80;;
13267;SDS011;6702;47.068;15.458;2022-08-03T10:32:16;3.05;;;2.85;;
13267;SDS011;6702;47.068;15.458;2022-08-03T10:35:22;2.80;;;2.60;;
13267;SDS011;6702;47.068;15.458;2022-08-03T10:38:31;3.00;;;2.80;;
13267;SDS011;6702;47.068;15.458;2022-08-03T10:41:40;2.97;;;2.78;;
13267;SDS011;6702;47.068;15.458;2022-08-03T10:44:49;2.97;;;2.78;;
13267;SDS011;6702;47.068;15.458;2022-08-03T10:47:57;4.10;;;3.70;;
13267;SDS011;6702;47.068;15.458;2022-08-03T10:51:02;2.85;;;2.65;;
13267;SDS011;6702;47.068;15.458;2022-08-03T10:54:15;3.08;;;2.88;;
13267;SDS011;6702;47.068;15.458;2022-08-03T10:58:00;3.55;;;3.35;;
13267;SDS011;6702;47.068;15.458;2022-08-03T11:01:08;3.38;;;3.17;;
13267;SDS011;6702;47.068;15.458;2022-08-03T11:04:13;3.38;;;3.08;;
13267;SDS011;6702;47.068;15.458;2022-08-03T11:07:19;4.50;;;3.10;;
13267;SDS011;6702;47.068;15.458;2022-08-03T11:10:31;3.35;;;3.15;;
13267;SDS011;6702;47.068;15.458;2022-08-03T11:13:34;5.32;;;2.45;;
13267;SDS011;6702;47.068;15.458;2022-08-03T11:16:38;2.80;;;2.60;;
13267;SDS011;6702;47.068;15.458;2022-08-03T11:19:42;3.17;;;2.95;;
13267;SDS011;6702;47.068;15.458;2022-08-03T11:22:58;2.92;;;2.72;;
13267;SDS011;6702;47.068;15.458;2022-08-03T11:26:13;2.60;;;2.40;;
13267;SDS011;6702;47.068;15.458;2022-08-03T11:29:25;3.15;;;2.85;;
13267;SDS011;6702;47.068;15.458;2022-08-03T11:35:57;2.88;;;2.63;;
13267;SDS011;6702;47.068;15.458;2022-08-03T11:39:14;3.05;;;2.80;;
13267;SDS011;6702;47.068;15.458;2022-08-03T11:45:55;3.10;;;2.80;;
13267;SDS011;6702;47.068;15.458;2022-08-03T11:49:02;2.75;;;2.55;;
13267;SDS011;6702;47.068;15.458;2022-08-03T11:52:11;2.85;;;2.65;;
13267;SDS011;6702;47.068;15.458;2022-08-03T11:55:15;2.67;;;2.47;;
13267;SDS011;6702;47.068;15.458;2022-08-03T11:58:22;3.00;;;2.80;;
13267;SDS011;6702;47.068;15.458;2022-08-03T12:01:45;3.22;;;2.53;;
13267;SDS011;6702;47.068;15.458;2022-08-03T12:04:48;2.85;;;2.65;;
13267;SDS011;6702;47.068;15.458;2022-08-03T12:07:52;2.83;;;2.63;;
13267;SDS011;6702;47.068;15.458;2022-08-03T12:11:06;2.25;;;2.15;;
13267;SDS011;6702;47.068;15.458;2022-08-03T12:14:16;2.85;;;2.65;;
13267;SDS011;6702;47.068;15.458;2022-08-03T12:17:39;2.45;;;2.25;;
13267;SDS011;6702;47.068;15.458;2022-08-03T12:20:43;2.92;;;2.58;;
13267;SDS011;6702;47.068;15.458;2022-08-03T12:23:48;2.20;;;2.10;;
13267;SDS011;6702;47.068;15.458;2022-08-03T12:26:51;2.30;;;2.10;;
13267;SDS011;6702;47.068;15.458;2022-08-03T12:30:02;3.40;;;2.47;;
13267;SDS011;6702;47.068;15.458;2022-08-03T12:33:11;2.42;;;2.22;;
13267;SDS011;6702;47.068;15.458;2022-08-03T12:36:15;2.53;;;2.33;;
13267;SDS011;6702;47.068;15.458;2022-08-03T12:39:21;2.60;;;2.40;;
13267;SDS011;6702;47.068;15.458;2022-08-03T12:42:28;2.20;;;2.10;;
13267;SDS011;6702;47.068;15.458;2022-08-03T12:45:33;2.78;;;2.50;;
13267;SDS011;6702;47.068;15.458;2022-08-03T12:51:59;4.68;;;2.88;;
13267;SDS011;6702;47.068;15.458;2022-08-03T12:55:07;2.65;;;2.40;;
13267;SDS011;6702;47.068;15.458;2022-08-03T12:58:30;4.28;;;2.47;;
13267;SDS011;6702;47.068;15.458;2022-08-03T13:01:37;2.20;;;2.00;;
13267;SDS011;6702;47.068;15.458;2022-08-03T13:04:55;2.10;;;2.00;;
13267;SDS011;6702;47.068;15.458;2022-08-03T13:08:00;2.75;;;1.92;;
13267;SDS011;6702;47.068;15.458;2022-08-03T13:11:16;2.30;;;2.20;;
13267;SDS011;6702;47.068;15.458;2022-08-03T13:14:44;2.70;;;2.28;;
13267;SDS011;6702;47.068;15.458;2022-08-03T13:17:50;2.58;;;2.47;;
13267;SDS011;6702;47.068;15.458;2022-08-03T13:20:53;2.20;;;2.10;;
13267;SDS011;6702;47.068;15.458;2022-08-03T13:23:56;2.25;;;2.05;;
13267;SDS011;6702;47.068;15.458;2022-08-03T13:26:59;2.13;;;1.92;;
13267;SDS011;6702;47.068;15.458;2022-08-03T13:30:25;2.22;;;2.03;;
13267;SDS011;6702;47.068;15.458;2022-08-03T13:33:32;2.45;;;2.25;;
13267;SDS011;6702;47.068;15.458;2022-08-03T13:36:35;1.90;;;1.80;;
13267;SDS011;6702;47.068;15.458;2022-08-03T13:39:58;2.00;;;1.80;;
13267;SDS011;6702;47.068;15.458;2022-08-03T13:43:03;2.25;;;2.05;;
13267;SDS011;6702;47.068;15.458;2022-08-03T13:46:06;2.38;;;1.98;;
13267;SDS011;6702;47.068;15.458;2022-08-03T13:49:11;2.20;;;2.00;;
13267;SDS011;6702;47.068;15.458;2022-08-03T13:52:14;4.30;;;2.00;;
13267;SDS011;6702;47.068;15.458;2022-08-03T13:55:18;2.05;;;1.95;;
13267;SDS011;6702;47.068;15.458;2022-08-03T13:58:21;2.17;;;1.98;;
13267;SDS011;6702;47.068;15.458;2022-08-03T14:01:24;2.10;;;2.00;;
13267;SDS011;6702;47.068;15.458;2022-08-03T14:04:49;2.03;;;1.63;;
13267;SDS011;6702;47.068;15.458;2022-08-03T14:07:52;1.77;;;1.67;;
13267;SDS011;6702;47.068;15.458;2022-08-03T14:11:04;2.70;;;1.77;;
13267;SDS011;6702;47.068;15.458;2022-08-03T14:14:08;2.33;;;1.90;;
13267;SDS011;6702;47.068;15.458;2022-08-03T14:17:11;2.15;;;1.98;;
13267;SDS011;6702;47.068;15.458;2022-08-03T14:20:18;1.83;;;1.73;;
13267;SDS011;6702;47.068;15.458;2022-08-03T14:23:39;2.25;;;2.05;;
13267;SDS011;6702;47.068;15.458;2022-08-03T14:26:42;1.92;;;1.60;;
13267;SDS011;6702;47.068;15.458;2022-08-03T14:29:45;2.20;;;2.10;;
13267;SDS011;6702;47.068;15.458;2022-08-03T14:32:48;2.80;;;2.60;;
13267;SDS011;6702;47.068;15.458;2022-08-03T14:35:53;2.58;;;1.98;;
13267;SDS011;6702;47.068;15.458;2022-08-03T14:38:56;2.00;;;1.90;;
13267;SDS011;6702;47.068;15.458;2022-08-03T14:42:02;2.15;;;1.95;;
13267;SDS011;6702;47.068;15.458;2022-08-03T14:45:05;2.08;;;1.98;;
13267;SDS011;6702;47.068;15.458;2022-08-03T14:48:20;2.58;;;2.33;;
13267;SDS011;6702;47.068;15.458;2022-08-03T14:51:45;2.42;;;2.22;;
13267;SDS011;6702;47.068;15.458;2022-08-03T14:54:54;3.25;;;2.42;;
13267;SDS011;6702;47.068;15.458;2022-08-03T14:57:57;2.58;;;2.38;;
13267;SDS011;6702;47.068;15.458;2022-08-03T15:01:03;2.17;;;2.08;;
13267;SDS011;6702;47.068;15.458;2022-08-03T15:04:27;2.95;;;2.00;;
13267;SDS011;6702;47.068;15.458;2022-08-03T15:07:32;1.85;;;1.75;;
13267;SDS011;6702;47.068;15.458;2022-08-03T15:10:35;2.33;;;1.85;;
13267;SDS011;6702;47.068;15.458;2022-08-03T15:13:44;2.58;;;2.20;;
13267;SDS011;6702;47.068;15.458;2022-08-03T15:16:48;3.40;;;3.05;;
13267;SDS011;6702;47.068;15.458;2022-08-03T15:19:51;2.78;;;2.10;;
13267;SDS011;6702;47.068;15.458;2022-08-03T15:23:15;2.40;;;2.20;;
13267;SDS011;6702;47.068;15.458;2022-08-03T15:26:19;2.42;;;2.17;;
13267;SDS011;6702;47.068;15.458;2022-08-03T15:29:36;2.58;;;2.35;;
13267;SDS011;6702;47.068;15.458;2022-08-03T15:32:59;3.22;;;2.40;;
13267;SDS011;6702;47.068;15.458;2022-08-03T15:36:03;2.45;;;2.25;;
13267;SDS011;6702;47.068;15.458;2022-08-03T15:39:08;3.10;;;2.72;;
13267;SDS011;6702;47.068;15.458;2022-08-03T15:42:11;2.65;;;2.45;;
13267;SDS011;6702;47.068;15.458;2022-08-03T15:45:14;2.30;;;2.17;;
13267;SDS011;6702;47.068;15.458;2022-08-03T15:48:20;2.78;;;1.90;;
13267;SDS011;6702;47.068;15.458;2022-08-03T15:51:26;2.35;;;2.25;;
13267;SDS011;6702;47.068;15.458;2022-08-03T15:54:31;2.08;;;1.75;;
13267;SDS011;6702;47.068;15.458;2022-08-03T15:57:34;2.50;;;2.30;;
13267;SDS011;6702;47.068;15.458;2022-08-03T16:00:58;2.58;;;2.38;;
13267;SDS011;6702;47.068;15.458;2022-08-03T16:04:02;1.98;;;1.88;;
13267;SDS011;6702;47.068;15.458;2022-08-03T16:07:05;2.33;;;2.17;;
13267;SDS011;6702;47.068;15.458;2022-08-03T16:10:15;1.90;;;1.80;;
13267;SDS011;6702;47.068;15.458;2022-08-03T16:13:19;2.00;;;1.90;;
13267;SDS011;6702;47.068;15.458;2022-08-03T16:16:43;2.10;;;1.90;;
13267;SDS011;6702;47.068;15.458;2022-08-03T16:19:46;3.13;;;2.30;;
13267;SDS011;6702;47.068;15.458;2022-08-03T16:22:50;2.70;;;2.50;;
13267;SDS011;6702;47.068;15.458;2022-08-03T16:25:54;4.10;;;2.10;;
13267;SDS011;6702;47.068;15.458;2022-08-03T16:28:57;2.60;;;2.40;;
13267;SDS011;6702;47.068;15.458;2022-08-03T16:32:01;2.50;;;2.10;;
13267;SDS011;6702;47.068;15.458;2022-08-03T16:35:10;2.78;;;2.58;;
13267;SDS011;6702;47.068;15.458;2022-08-03T16:38:21;2.50;;;2.30;;
13267;SDS011;6702;47.068;15.458;2022-08-03T16:41:26;2.67;;;2.08;;
13267;SDS011;6702;47.068;15.458;2022-08-03T16:44:49;2.35;;;2.20;;
13267;SDS011;6702;47.068;15.458;2022-08-03T16:47:52;2.53;;;2.20;;
13267;SDS011;6702;47.068;15.458;2022-08-03T16:51:05;3.33;;;2.75;;
13267;SDS011;6702;47.068;15.458;2022-08-03T16:54:08;3.63;;;2.47;;
13267;SDS011;6702;47.068;15.458;2022-08-03T16:57:15;3.15;;;2.50;;
13267;SDS011;6702;47.068;15.458;2022-08-03T17:00:38;3.90;;;2.72;;
13267;SDS011;6702;47.068;15.458;2022-08-03T17:03:42;2.30;;;2.13;;
13267;SDS011;6702;47.068;15.458;2022-08-03T17:07:04;3.22;;;2.40;;
13267;SDS011;6702;47.068;15.458;2022-08-03T17:10:09;2.83;;;2.63;;
13267;SDS011;6702;47.068;15.458;2022-08-03T17:13:14;3.38;;;2.70;;
13267;SDS011;6702;47.068;15.458;2022-08-03T17:16:37;2.40;;;2.20;;
13267;SDS011;6702;47.068;15.458;2022-08-03T17:19:53;2.83;;;2.63;;
13267;SDS011;6702;47.068;15.458;2022-08-03T17:23:00;2.50;;;2.30;;
13267;SDS011;6702;47.068;15.458;2022-08-03T17:26:38;2.67;;;2.05;;
13267;SDS011;6702;47.068;15.458;2022-08-03T17:29:47;2.58;;;2.38;;
13267;SDS011;6702;47.068;15.458;2022-08-03T17:32:52;2.53;;;2.33;;
13267;SDS011;6702;47.068;15.458;2022-08-03T17:35:58;2.55;;;2.35;;
13267;SDS011;6702;47.068;15.458;2022-08-03T17:39:03;2.90;;;2.70;;
13267;SDS011;6702;47.068;15.458;2022-08-03T17:42:09;2.78;;;2.53;;
13267;SDS011;6702;47.068;15.458;2022-08-03T17:45:33;2.95;;;2.75;;
13267;SDS011;6702;47.068;15.458;2022-08-03T17:48:55;2.57;;;2.37;;
13267;SDS011;6702;47.068;15.458;2022-08-03T17:52:00;2.70;;;2.50;;
13267;SDS011;6702;47.068;15.458;2022-08-03T17:55:06;2.30;;;2.20;;
13267;SDS011;6702;47.068;15.458;2022-08-03T17:58:37;3.50;;;3.20;;
13267;SDS011;6702;47.068;15.458;2022-08-03T18:01:55;3.43;;;3.17;;
13267;SDS011;6702;47.068;15.458;2022-08-03T18:05:31;4.00;;;2.80;;
13267;SDS011;6702;47.068;15.458;2022-08-03T18:08:57;3.47;;;2.90;;
13267;SDS011;6702;47.068;15.458;2022-08-03T18:12:24;2.90;;;2.70;;
13267;SDS011;6702;47.068;15.458;2022-08-03T18:15:31;3.30;;;3.10;;
13267;SDS011;6702;47.068;15.458;2022-08-03T18:18:41;3.63;;;3.00;;
13267;SDS011;6702;47.068;15.458;2022-08-03T18:21:49;3.23;;;2.93;;
13267;SDS011;6702;47.068;15.458;2022-08-03T18:25:04;3.20;;;3.00;;
13267;SDS011;6702;47.068;15.458;2022-08-03T18:28:13;3.13;;;2.67;;
13267;SDS011;6702;47.068;15.458;2022-08-03T18:31:19;2.90;;;2.70;;
13267;SDS011;6702;47.068;15.458;2022-08-03T18:34:45;3.30;;;3.00;;
13267;SDS011;6702;47.068;15.458;2022-08-03T18:37:54;4.93;;;3.27;;
13267;SDS011;6702;47.068;15.458;2022-08-03T18:41:01;3.00;;;2.80;;
13267;SDS011;6702;47.068;15.458;2022-08-03T18:44:17;3.57;;;3.23;;
13267;SDS011;6702;47.068;15.458;2022-08-03T18:47:49;3.40;;;3.10;;
13267;SDS011;6702;47.068;15.458;2022-08-03T18:51:00;3.50;;;3.20;;
13267;SDS011;6702;47.068;15.458;2022-08-03T18:54:09;3.50;;;3.20;;
13267;SDS011;6702;47.068;15.458;2022-08-03T18:57:37;3.87;;;3.23;;
13267;SDS011;6702;47.068;15.458;2022-08-03T19:00:48;5.23;;;3.27;;
13267;SDS011;6702;47.068;15.458;2022-08-03T19:04:08;4.83;;;3.17;;
13267;SDS011;6702;47.068;15.458;2022-08-03T19:07:24;5.07;;;3.37;;